Time;durP1;ratioP1;P1;durP2;ratioP2;P2;SDS_P1;SDS_P2;PMS_P1;PMS_P2;Temp;Humidity;BMP_temperature;BMP_pressure;BME280_temperature;BME280_humidity;BME280_pressure;Samples;Min_cycle;Max_cycle;Signal;HPM_P1;HPM_P2
2023/01/22 00:00:57;;;;;;;13.93;5.75;;;2.40;88.50;;;;;;4969934;28;20054;-79
2023/01/22 00:03:23;;;;;;;12.73;5.18;;;2.40;88.50;;;;;;4971855;28;20054;-78
2023/01/22 00:05:51;;;;;;;14.20;5.15;;;2.40;88.60;;;;;;4954664;28;20063;-79
2023/01/22 00:08:18;;;;;;;17.67;5.18;;;2.40;88.60;;;;;;4956795;28;20054;-78
2023/01/22 00:10:50;;;;;;;18.30;5.10;;;2.40;88.60;;;;;;4961333;28;20059;-78
2023/01/22 00:13:18;;;;;;;17.85;5.35;;;2.50;88.50;;;;;;4962487;28;20055;-78
2023/01/22 00:15:45;;;;;;;20.45;6.18;;;2.50;88.60;;;;;;4960048;28;20055;-79
2023/01/22 00:18:12;;;;;;;18.77;5.25;;;2.50;88.50;;;;;;4962266;28;20502;-80
2023/01/22 00:20:39;;;;;;;15.18;5.40;;;2.50;88.60;;;;;;4977805;28;20309;-78
2023/01/22 00:23:07;;;;;;;15.13;4.65;;;2.50;88.70;;;;;;4961400;28;20102;-78
2023/01/22 00:25:34;;;;;;;16.38;5.50;;;2.50;88.60;;;;;;4960335;28;20050;-79
2023/01/22 00:28:01;;;;;;;15.73;4.53;;;2.50;88.70;;;;;;4962809;28;20051;-79
2023/01/22 00:30:27;;;;;;;14.80;4.90;;;2.50;88.40;;;;;;4961484;28;20472;-78
2023/01/22 00:32:54;;;;;;;14.27;5.85;;;2.60;88.30;;;;;;4961383;28;20147;-79
2023/01/22 00:35:22;;;;;;;18.75;5.20;;;2.60;88.40;;;;;;4961154;28;20047;-78
2023/01/22 00:37:49;;;;;;;13.80;4.50;;;2.60;88.20;;;;;;4961468;28;20145;-79
2023/01/22 00:40:17;;;;;;;10.85;4.55;;;2.60;88.40;;;;;;4959893;28;20054;-79
2023/01/22 00:42:44;;;;;;;13.27;4.35;;;2.60;88.50;;;;;;4976347;28;20055;-78
2023/01/22 00:45:13;;;;;;;14.50;5.18;;;2.60;88.30;;;;;;4960936;28;20062;-79
2023/01/22 00:47:40;;;;;;;14.52;4.93;;;2.60;88.40;;;;;;4975759;28;20042;-78
2023/01/22 00:50:07;;;;;;;16.90;5.50;;;2.60;88.50;;;;;;4961498;28;20037;-79
2023/01/22 00:52:36;;;;;;;20.15;5.30;;;2.60;88.40;;;;;;4961038;28;20055;-78
2023/01/22 00:55:04;;;;;;;11.20;4.90;;;2.60;88.40;;;;;;4960650;28;20047;-79
2023/01/22 00:57:31;;;;;;;18.90;5.60;;;2.60;88.80;;;;;;4962550;28;20046;-78
2023/01/22 00:59:58;;;;;;;14.60;4.50;;;2.60;88.80;;;;;;4961332;28;20043;-79
2023/01/22 01:02:25;;;;;;;16.20;4.75;;;2.60;88.70;;;;;;4962339;28;20080;-79
2023/01/22 01:04:52;;;;;;;12.52;4.47;;;2.60;88.80;;;;;;4962472;28;20867;-79
2023/01/22 01:07:19;;;;;;;16.63;4.82;;;2.60;88.70;;;;;;4958095;28;20134;-79
2023/01/22 01:09:46;;;;;;;15.05;4.93;;;2.60;88.70;;;;;;4956919;28;20928;-79
2023/01/22 01:12:13;;;;;;;14.65;4.70;;;2.60;88.70;;;;;;4951839;28;20062;-79
2023/01/22 01:14:40;;;;;;;17.67;4.20;;;2.60;88.80;;;;;;4957606;28;20054;-78
2023/01/22 01:17:07;;;;;;;9.00;4.63;;;2.60;88.50;;;;;;4955907;28;20133;-79
2023/01/22 01:19:34;;;;;;;11.38;4.38;;;2.60;88.60;;;;;;4968834;28;20062;-78
2023/01/22 01:22:00;;;;;;;18.70;4.57;;;2.60;88.70;;;;;;4970410;28;20137;-78
2023/01/22 01:24:27;;;;;;;11.85;4.07;;;2.60;88.70;;;;;;4953600;28;20055;-78
2023/01/22 01:26:54;;;;;;;11.77;3.88;;;2.60;88.70;;;;;;4957509;28;20046;-78
2023/01/22 01:29:21;;;;;;;14.77;4.90;;;2.60;88.80;;;;;;4970900;28;20074;-78
2023/01/22 01:31:52;;;;;;;18.55;4.20;;;2.60;88.90;;;;;;4955866;28;20062;-78
2023/01/22 01:34:19;;;;;;;10.50;4.28;;;2.60;88.90;;;;;;4966455;28;20055;-78
2023/01/22 01:36:46;;;;;;;8.27;3.67;;;2.60;88.80;;;;;;4953111;28;20187;-78
2023/01/22 01:39:16;;;;;;;12.18;4.68;;;2.60;88.80;;;;;;4951271;28;20319;-78
2023/01/22 01:41:43;;;;;;;11.55;3.85;;;2.60;88.80;;;;;;4953453;28;20384;-78
2023/01/22 01:44:15;;;;;;;18.08;5.25;;;2.70;88.80;;;;;;4966932;28;20057;-78
2023/01/22 01:46:56;;;;;;;10.93;4.43;;;2.70;88.90;;;;;;4952693;28;20174;-78
2023/01/22 01:49:50;;;;;;;8.45;3.72;;;2.70;88.80;;;;;;4947308;28;20228;-78
2023/01/22 01:52:17;;;;;;;9.75;3.72;;;2.60;88.80;;;;;;4952309;28;20059;-78
2023/01/22 01:54:51;;;;;;;7.38;3.22;;;2.60;88.90;;;;;;4949510;28;20058;-79
2023/01/22 01:57:22;;;;;;;8.98;3.53;;;2.60;88.80;;;;;;4957118;28;20097;-79
2023/01/22 01:59:51;;;;;;;15.20;3.80;;;2.60;88.90;;;;;;4951068;28;20070;-78
2023/01/22 02:02:19;;;;;;;13.75;4.00;;;2.70;88.90;;;;;;4951426;28;20183;-78
2023/01/22 02:04:47;;;;;;;14.45;4.50;;;2.60;88.80;;;;;;4966927;28;20055;-78
2023/01/22 02:07:14;;;;;;;17.67;4.13;;;2.70;88.90;;;;;;4955604;28;20046;-78
2023/01/22 02:09:41;;;;;;;11.98;3.60;;;2.60;88.90;;;;;;4970407;28;20500;-79
2023/01/22 02:12:08;;;;;;;9.75;3.70;;;2.70;88.80;;;;;;4956909;28;20058;-78
2023/01/22 02:14:40;;;;;;;12.85;3.55;;;2.70;88.80;;;;;;4954620;28;20150;-79
2023/01/22 02:17:10;;;;;;;15.35;3.95;;;2.70;88.70;;;;;;4955024;28;20420;-79
2023/01/22 02:19:38;;;;;;;14.05;3.47;;;2.70;88.80;;;;;;4960541;28;20051;-79
2023/01/22 02:22:20;;;;;;;11.48;3.58;;;2.70;88.40;;;;;;4970682;28;20065;-79
2023/01/22 02:24:48;;;;;;;10.88;3.97;;;2.70;88.30;;;;;;4954317;28;20051;-80
2023/01/22 02:27:15;;;;;;;17.58;3.60;;;2.70;88.50;;;;;;4960577;28;20053;-79
2023/01/22 02:29:42;;;;;;;10.27;3.42;;;2.70;88.20;;;;;;4953850;28;20050;-80
2023/01/22 02:32:10;;;;;;;15.25;3.53;;;2.70;88.10;;;;;;4954972;28;20051;-78
2023/01/22 02:34:37;;;;;;;10.43;3.10;;;2.70;88.00;;;;;;4954170;28;20116;-79
2023/01/22 02:37:04;;;;;;;10.77;3.60;;;2.70;88.00;;;;;;4951960;28;20397;-79
2023/01/22 02:39:31;;;;;;;12.95;3.97;;;2.70;87.90;;;;;;4955743;28;20065;-78
2023/01/22 02:41:58;;;;;;;10.45;3.13;;;2.70;88.00;;;;;;4956300;28;20054;-79
2023/01/22 02:44:25;;;;;;;16.02;3.78;;;2.80;87.90;;;;;;4955345;28;20046;-78
2023/01/22 02:46:51;;;;;;;17.70;3.72;;;2.80;88.00;;;;;;4954887;28;20258;-79
2023/01/22 02:49:18;;;;;;;9.75;3.38;;;2.70;87.80;;;;;;4953390;28;20745;-78
2023/01/22 02:51:45;;;;;;;15.55;3.78;;;2.80;87.90;;;;;;4954774;28;20059;-78
2023/01/22 02:54:12;;;;;;;13.57;3.45;;;2.80;87.60;;;;;;4953599;28;20055;-79
2023/01/22 02:56:39;;;;;;;16.30;3.40;;;2.80;87.40;;;;;;4957025;28;20073;-79
2023/01/22 02:59:06;;;;;;;11.90;3.72;;;2.80;86.90;;;;;;4954877;28;20063;-78
2023/01/22 03:01:33;;;;;;;7.15;3.33;;;2.80;86.80;;;;;;4954944;28;20051;-79
2023/01/22 03:04:10;;;;;;;10.18;3.10;;;2.80;86.70;;;;;;4969942;28;20058;-79
2023/01/22 03:06:40;;;;;;;8.68;3.03;;;2.80;86.80;;;;;;4956217;28;20078;-78
2023/01/22 03:09:08;;;;;;;12.38;3.40;;;2.80;86.70;;;;;;4955359;28;20100;-79
2023/01/22 03:11:37;;;;;;;9.52;2.70;;;2.90;86.50;;;;;;4955887;28;20058;-77
2023/01/22 03:22:20;;;;;;;;;;;2.90;85.90;;;;;;4956233;28;20055;-78
2023/01/22 03:24:51;;;;;;;12.30;3.33;;;2.90;85.80;;;;;;4952933;28;20395;-78
2023/01/22 03:27:21;;;;;;;13.07;3.03;;;2.90;86.00;;;;;;4956359;28;20058;-78
2023/01/22 03:29:48;;;;;;;11.60;3.22;;;2.90;86.20;;;;;;4954721;28;20043;-78
2023/01/22 03:32:15;;;;;;;13.02;3.08;;;2.90;85.90;;;;;;4967897;28;20504;-77
2023/01/22 03:34:42;;;;;;;10.68;2.60;;;2.90;86.00;;;;;;4951702;28;20435;-78
2023/01/22 03:37:11;;;;;;;6.32;2.70;;;2.90;85.80;;;;;;4954192;28;20065;-78
2023/01/22 03:39:39;;;;;;;10.45;2.75;;;2.90;85.80;;;;;;4954768;28;20059;-78
2023/01/22 03:42:07;;;;;;;5.75;2.55;;;2.90;85.50;;;;;;4954000;28;20050;-78
2023/01/22 03:44:33;;;;;;;8.25;3.05;;;2.90;85.50;;;;;;4955157;28;20430;-78
2023/01/22 03:47:00;;;;;;;9.60;2.53;;;2.90;85.50;;;;;;4955888;28;20059;-77
2023/01/22 03:49:27;;;;;;;13.00;3.13;;;2.90;85.50;;;;;;4954707;28;21059;-79
2023/01/22 03:51:55;;;;;;;7.40;2.10;;;2.90;85.60;;;;;;4950394;28;20058;-78
2023/01/22 03:54:22;;;;;;;9.55;2.92;;;2.90;85.50;;;;;;4969738;28;20067;-78
2023/01/22 03:56:49;;;;;;;14.98;2.88;;;2.90;85.40;;;;;;4969901;28;20063;-79
2023/01/22 03:59:15;;;;;;;19.20;3.55;;;3.00;85.40;;;;;;4953150;28;20054;-79
2023/01/22 04:01:43;;;;;;;10.90;2.72;;;3.00;85.10;;;;;;4956538;28;20062;-82
2023/01/22 04:04:10;;;;;;;8.15;2.25;;;3.00;85.50;;;;;;4956976;28;20072;-82
2023/01/22 04:06:36;;;;;;;7.70;2.05;;;3.00;85.00;;;;;;4953865;28;20061;-83
2023/01/22 04:09:03;;;;;;;10.80;2.88;;;3.00;85.20;;;;;;4968378;28;20062;-83
2023/01/22 04:11:30;;;;;;;9.25;2.35;;;3.00;84.90;;;;;;4958559;28;20058;-83
2023/01/22 04:13:57;;;;;;;9.50;2.45;;;3.00;84.90;;;;;;4954833;28;20054;-83
2023/01/22 04:16:24;;;;;;;10.32;2.38;;;3.10;84.80;;;;;;4954243;28;20055;-83
2023/01/22 04:18:51;;;;;;;10.27;2.30;;;3.10;84.80;;;;;;4947851;28;20074;-83
2023/01/22 04:21:18;;;;;;;17.33;2.70;;;3.00;85.10;;;;;;4948140;28;20057;-82
2023/01/22 04:23:45;;;;;;;6.28;1.90;;;3.00;85.00;;;;;;4942255;28;20098;-83
2023/01/22 04:26:11;;;;;;;8.30;2.75;;;3.00;85.00;;;;;;4959506;28;20140;-82
2023/01/22 04:28:39;;;;;;;8.00;2.60;;;3.10;85.10;;;;;;4941501;28;20760;-83
2023/01/22 04:31:07;;;;;;;4.68;1.77;;;3.10;85.00;;;;;;4960686;28;21643;-83
2023/01/22 04:33:35;;;;;;;14.15;2.40;;;3.10;85.20;;;;;;4959202;28;20055;-84
2023/01/22 04:36:02;;;;;;;15.80;2.30;;;3.00;85.10;;;;;;4943802;28;20220;-82
2023/01/22 04:38:29;;;;;;;7.68;1.67;;;3.10;85.00;;;;;;4943938;28;20519;-81
2023/01/22 04:40:55;;;;;;;8.80;2.47;;;3.10;85.00;;;;;;4945592;28;20054;-80
2023/01/22 04:43:22;;;;;;;8.95;1.95;;;3.10;85.00;;;;;;4944162;28;20110;-82
2023/01/22 04:45:50;;;;;;;9.90;2.13;;;3.10;84.80;;;;;;4946233;28;20057;-82
2023/01/22 04:48:17;;;;;;;6.75;1.92;;;3.10;84.60;;;;;;4948340;28;20050;-82
2023/01/22 04:50:44;;;;;;;22.52;2.42;;;3.10;84.80;;;;;;4949463;28;20050;-83
2023/01/22 04:53:12;;;;;;;9.05;2.15;;;3.10;84.70;;;;;;4957029;28;20043;-82
2023/01/22 04:55:40;;;;;;;14.13;2.65;;;3.10;84.40;;;;;;4957618;28;20066;-82
2023/01/22 04:58:08;;;;;;;9.18;1.65;;;3.10;84.50;;;;;;4952124;28;20385;-83
2023/01/22 05:00:35;;;;;;;12.18;2.03;;;3.10;84.40;;;;;;4969299;28;20061;-82
2023/01/22 05:03:03;;;;;;;8.80;2.25;;;3.10;84.60;;;;;;4951811;28;20311;-82
2023/01/22 05:05:31;;;;;;;9.93;1.90;;;3.10;84.50;;;;;;4954106;28;20047;-83
2023/01/22 05:07:59;;;;;;;11.80;1.83;;;3.10;84.60;;;;;;4973270;28;20062;-83
2023/01/22 05:10:26;;;;;;;7.97;2.35;;;3.10;84.60;;;;;;4956959;28;20405;-81
2023/01/22 05:12:53;;;;;;;9.82;2.10;;;3.10;84.90;;;;;;4955835;28;20672;-83
2023/01/22 05:15:20;;;;;;;10.63;2.00;;;3.10;84.60;;;;;;4972052;28;20106;-83
2023/01/22 05:17:52;;;;;;;9.00;2.30;;;3.10;84.80;;;;;;4957516;28;20067;-81
2023/01/22 05:20:19;;;;;;;11.60;2.15;;;3.10;84.90;;;;;;4961700;28;20057;-82
2023/01/22 05:22:46;;;;;;;11.82;2.47;;;3.10;84.90;;;;;;4954537;28;20525;-82
2023/01/22 05:25:14;;;;;;;4.75;2.08;;;3.10;85.00;;;;;;4956355;28;20842;-82
2023/01/22 05:27:40;;;;;;;10.15;2.35;;;3.10;84.90;;;;;;4970471;28;20153;-82
2023/01/22 05:30:08;;;;;;;14.98;2.30;;;3.10;85.10;;;;;;4955496;28;20055;-82
2023/01/22 05:32:35;;;;;;;9.60;2.58;;;3.10;85.20;;;;;;4971884;28;20058;-82
2023/01/22 05:35:04;;;;;;;9.70;1.85;;;3.10;85.50;;;;;;4956651;28;20074;-82
2023/01/22 05:37:31;;;;;;;4.38;1.73;;;3.10;85.50;;;;;;4955973;28;20061;-82
2023/01/22 05:39:58;;;;;;;16.38;2.03;;;3.10;85.40;;;;;;4956353;28;21000;-82
2023/01/22 05:42:26;;;;;;;6.50;1.88;;;3.10;85.70;;;;;;4955724;28;20055;-83
2023/01/22 05:44:53;;;;;;;5.07;1.48;;;3.10;85.70;;;;;;4956652;28;20352;-82
2023/01/22 05:47:20;;;;;;;10.00;1.98;;;3.10;85.40;;;;;;4957220;28;20051;-82
2023/01/22 05:49:46;;;;;;;14.98;2.63;;;3.10;85.50;;;;;;4954755;28;20055;-82
2023/01/22 05:52:13;;;;;;;15.68;2.25;;;3.10;85.60;;;;;;4956154;28;20134;-81
2023/01/22 05:54:40;;;;;;;4.63;1.60;;;3.10;85.70;;;;;;4955232;28;20145;-81
2023/01/22 05:57:08;;;;;;;23.17;2.63;;;3.10;85.60;;;;;;4973245;28;20055;-81
2023/01/22 05:59:35;;;;;;;15.45;2.03;;;3.10;85.50;;;;;;4953207;28;20069;-81
2023/01/22 06:02:02;;;;;;;9.43;1.70;;;3.10;85.40;;;;;;4951072;28;20405;-80
2023/01/22 06:04:29;;;;;;;5.70;1.33;;;3.10;85.40;;;;;;4970770;28;20061;-82
2023/01/22 06:06:56;;;;;;;11.07;2.10;;;3.10;85.40;;;;;;4956833;28;20053;-81
2023/01/22 06:09:23;;;;;;;14.23;2.47;;;3.10;85.50;;;;;;4955736;28;20236;-81
2023/01/22 06:11:50;;;;;;;16.15;2.00;;;3.10;85.00;;;;;;4971099;28;20519;-82
2023/01/22 06:14:18;;;;;;;15.10;2.13;;;3.10;85.10;;;;;;4970095;28;20531;-82
2023/01/22 06:16:45;;;;;;;19.15;1.95;;;3.10;85.10;;;;;;4971239;28;20062;-83
2023/01/22 06:19:12;;;;;;;6.80;1.75;;;3.10;85.00;;;;;;4954138;28;20417;-82
2023/01/22 06:21:39;;;;;;;12.95;1.95;;;3.10;85.00;;;;;;4955104;28;20181;-82
2023/01/22 06:24:08;;;;;;;8.27;1.52;;;3.10;84.90;;;;;;4953818;28;20043;-82
2023/01/22 06:26:39;;;;;;;16.83;1.63;;;3.10;84.90;;;;;;4956086;28;20050;-83
2023/01/22 06:29:06;;;;;;;6.28;1.73;;;3.10;84.90;;;;;;4969605;28;20061;-83
2023/01/22 06:31:33;;;;;;;13.63;1.60;;;3.10;84.90;;;;;;4956319;28;20636;-83
2023/01/22 06:34:00;;;;;;;13.05;2.40;;;3.10;84.90;;;;;;4954849;28;20051;-83
2023/01/22 06:36:27;;;;;;;10.02;1.67;;;3.10;85.00;;;;;;4954432;28;20411;-82
2023/01/22 06:38:54;;;;;;;11.88;1.80;;;3.10;85.00;;;;;;4955994;28;21387;-82
2023/01/22 06:41:21;;;;;;;10.18;1.40;;;3.10;85.10;;;;;;4956162;28;20442;-82
2023/01/22 06:43:47;;;;;;;8.02;1.65;;;3.10;85.10;;;;;;4954537;28;20067;-82
2023/01/22 06:46:15;;;;;;;9.45;1.33;;;3.10;85.10;;;;;;4954238;28;20552;-82
2023/01/22 06:48:45;;;;;;;9.45;2.00;;;3.10;85.00;;;;;;4955091;28;20059;-83
2023/01/22 06:51:15;;;;;;;11.60;1.92;;;3.10;85.20;;;;;;4954761;28;20058;-82
2023/01/22 06:53:42;;;;;;;8.07;1.42;;;3.10;85.20;;;;;;4952925;28;20054;-82
2023/01/22 06:56:09;;;;;;;7.65;1.52;;;3.10;85.10;;;;;;4954748;28;20503;-81
2023/01/22 06:58:37;;;;;;;7.30;1.63;;;3.10;85.20;;;;;;4954334;28;20623;-82
2023/01/22 07:01:05;;;;;;;14.00;1.92;;;3.10;85.20;;;;;;4954557;28;20105;-82
2023/01/22 07:03:32;;;;;;;9.50;1.65;;;3.10;85.20;;;;;;4953753;28;20085;-82
2023/01/22 07:06:01;;;;;;;7.95;1.77;;;3.10;85.50;;;;;;4968468;28;20053;-83
2023/01/22 07:08:29;;;;;;;9.13;1.65;;;3.10;85.50;;;;;;4954453;28;20046;-83
2023/01/22 07:10:57;;;;;;;15.85;1.90;;;3.10;85.50;;;;;;4952774;28;20396;-83
2023/01/22 07:13:24;;;;;;;6.10;1.38;;;3.10;85.80;;;;;;4969935;28;20065;-86
2023/01/22 07:15:51;;;;;;;8.80;1.52;;;3.10;85.80;;;;;;4962625;28;20113;-85
2023/01/22 07:18:20;;;;;;;5.03;1.95;;;3.10;85.80;;;;;;4966964;28;20141;-85
2023/01/22 07:20:47;;;;;;;5.63;2.03;;;3.10;85.70;;;;;;4966765;28;21349;-84
2023/01/22 07:23:14;;;;;;;6.53;1.58;;;3.10;85.80;;;;;;4968971;28;20058;-85
2023/01/22 07:25:43;;;;;;;17.70;3.22;;;3.10;85.90;;;;;;4965030;28;20051;-84
2023/01/22 07:28:13;;;;;;;10.48;2.95;;;3.10;85.90;;;;;;4980823;28;20048;-85
2023/01/22 07:30:42;;;;;;;9.85;2.03;;;3.10;85.90;;;;;;4966601;28;20458;-85
2023/01/22 07:33:10;;;;;;;20.95;3.03;;;3.10;85.90;;;;;;4967328;28;20055;-85
2023/01/22 07:35:38;;;;;;;13.63;1.92;;;3.10;86.10;;;;;;4964808;28;20118;-85
2023/01/22 07:38:05;;;;;;;14.80;2.00;;;3.20;86.00;;;;;;4971202;28;20046;-85
2023/01/22 07:40:33;;;;;;;10.73;1.80;;;3.20;85.80;;;;;;4969935;28;20491;-83
2023/01/22 07:43:05;;;;;;;7.32;2.22;;;3.20;85.90;;;;;;4967472;28;21414;-84
2023/01/22 07:45:32;;;;;;;12.00;2.92;;;3.20;86.00;;;;;;4969701;28;20057;-84
2023/01/22 07:47:59;;;;;;;12.30;2.55;;;3.20;85.90;;;;;;4971760;28;20944;-84
2023/01/22 07:50:29;;;;;;;5.03;1.63;;;3.20;85.80;;;;;;4982262;28;20045;-85
2023/01/22 07:52:56;;;;;;;15.98;3.00;;;3.20;86.00;;;;;;4969663;28;20047;-84
2023/01/22 07:55:23;;;;;;;14.93;3.17;;;3.20;85.70;;;;;;4970778;28;20098;-83
2023/01/22 07:58:05;;;;;;;10.52;2.40;;;3.20;85.60;;;;;;4970318;28;20055;-84
2023/01/22 08:00:34;;;;;;;10.63;2.28;;;3.20;86.10;;;;;;4969738;28;20047;-83
2023/01/22 08:03:03;;;;;;;14.82;2.03;;;3.20;85.90;;;;;;4970044;28;20089;-85
2023/01/22 08:05:30;;;;;;;12.02;2.50;;;3.20;86.10;;;;;;4985403;28;20050;-81
2023/01/22 08:07:57;;;;;;;7.40;1.90;;;3.30;86.20;;;;;;4983535;28;20523;-87
2023/01/22 08:10:25;;;;;;;7.45;1.92;;;3.30;86.20;;;;;;4965473;28;20443;-87
2023/01/22 08:12:52;;;;;;;9.80;2.00;;;3.30;86.20;;;;;;4964963;28;20043;-87
2023/01/22 08:15:20;;;;;;;14.02;1.80;;;3.30;86.40;;;;;;4974980;28;20067;-88
2023/01/22 08:17:50;;;;;;;7.50;2.00;;;3.30;86.30;;;;;;4960686;28;20078;-88
2023/01/22 08:20:17;;;;;;;8.70;2.15;;;3.30;86.40;;;;;;4962229;28;20051;-87
2023/01/22 08:22:44;;;;;;;5.25;1.70;;;3.30;86.60;;;;;;4971433;28;20054;-89
2023/01/22 08:25:11;;;;;;;10.48;2.17;;;3.30;86.60;;;;;;4970891;28;20057;-89
2023/01/22 08:27:38;;;;;;;6.40;1.40;;;3.30;86.50;;;;;;4968863;28;20133;-83
2023/01/22 08:30:07;;;;;;;10.15;1.95;;;3.30;86.50;;;;;;4959216;28;20120;-83
2023/01/22 08:32:34;;;;;;;9.60;1.40;;;3.30;86.40;;;;;;4970352;28;20821;-83
2023/01/22 08:35:02;;;;;;;14.77;2.45;;;3.30;86.70;;;;;;4970640;28;20055;-87
2023/01/22 08:37:32;;;;;;;5.80;2.47;;;3.30;86.70;;;;;;4960339;28;20062;-87
2023/01/22 08:39:59;;;;;;;11.95;2.10;;;3.30;86.70;;;;;;4957502;28;20220;-86
2023/01/22 08:42:26;;;;;;;11.82;2.13;;;3.30;86.80;;;;;;4949649;28;20097;-84
2023/01/22 08:44:53;;;;;;;9.48;1.90;;;3.30;86.50;;;;;;4951433;28;20066;-83
2023/01/22 08:47:20;;;;;;;15.00;1.75;;;3.30;86.90;;;;;;4958093;28;20597;-83
2023/01/22 08:49:47;;;;;;;9.80;2.40;;;3.40;86.80;;;;;;4958611;28;20057;-85
2023/01/22 08:52:14;;;;;;;9.10;2.00;;;3.30;86.80;;;;;;4965535;28;20058;-84
2023/01/22 08:54:41;;;;;;;20.85;3.58;;;3.40;86.90;;;;;;4964817;28;20043;-82
2023/01/22 08:57:08;;;;;;;18.25;2.10;;;3.40;86.70;;;;;;4965576;28;20055;-82
2023/01/22 08:59:35;;;;;;;15.65;2.30;;;3.30;86.80;;;;;;4957026;28;20059;-86
2023/01/22 09:02:03;;;;;;;11.20;3.30;;;3.40;86.80;;;;;;4955732;28;20512;-86
2023/01/22 09:04:30;;;;;;;8.55;1.98;;;3.30;86.90;;;;;;4948259;28;20054;-84
2023/01/22 09:06:57;;;;;;;10.48;2.10;;;3.40;87.00;;;;;;4972476;28;20069;-85
2023/01/22 09:09:23;;;;;;;8.82;2.33;;;3.40;87.20;;;;;;4955263;28;20055;-81
2023/01/22 09:11:52;;;;;;;7.97;2.58;;;3.40;87.30;;;;;;4958811;28;20050;-85
2023/01/22 09:14:20;;;;;;;12.60;2.65;;;3.40;87.50;;;;;;4969802;28;20711;-79
2023/01/22 09:16:47;;;;;;;14.77;2.30;;;3.40;87.40;;;;;;4976065;28;20061;-83
2023/01/22 09:19:14;;;;;;;14.93;2.22;;;3.40;87.40;;;;;;4974713;28;20086;-82
2023/01/22 09:21:41;;;;;;;14.30;3.38;;;3.40;87.90;;;;;;4953992;28;20069;-76
2023/01/22 09:24:08;;;;;;;8.05;2.40;;;3.40;87.60;;;;;;4952878;28;20132;-76
2023/01/22 09:26:35;;;;;;;19.05;2.50;;;3.40;87.80;;;;;;4955421;28;20657;-78
2023/01/22 09:29:04;;;;;;;14.15;2.42;;;3.50;87.90;;;;;;4961109;28;20051;-78
2023/01/22 09:31:35;;;;;;;14.23;3.30;;;3.50;88.20;;;;;;4962767;28;20763;-78
2023/01/22 09:34:03;;;;;;;15.90;2.88;;;3.50;88.50;;;;;;4963658;28;20522;-79
2023/01/22 09:36:30;;;;;;;14.38;2.78;;;3.40;88.50;;;;;;4963801;28;20050;-82
2023/01/22 09:38:57;;;;;;;17.85;4.30;;;3.40;88.20;;;;;;4965831;28;20070;-81
2023/01/22 09:41:40;;;;;;;7.25;2.20;;;3.40;88.40;;;;;;4963781;28;20054;-82
2023/01/22 09:44:28;;;;;;;11.57;3.40;;;3.40;88.60;;;;;;4980617;28;20066;-83
2023/01/22 09:47:03;;;;;;;9.40;2.25;;;3.40;88.60;;;;;;4963924;28;20078;-82
2023/01/22 09:49:56;;;;;;;9.63;2.83;;;3.40;89.10;;;;;;4980309;28;20063;-89
2023/01/22 09:52:32;;;;;;;18.20;3.58;;;3.40;89.20;;;;;;4981905;28;20086;-80
2023/01/22 09:54:59;;;;;;;16.25;4.07;;;3.40;89.30;;;;;;4962555;28;20058;-81
2023/01/22 09:57:26;;;;;;;9.80;2.42;;;3.30;89.70;;;;;;4961307;28;20047;-79
2023/01/22 09:59:58;;;;;;;13.30;3.83;;;3.30;90.20;;;;;;4959474;28;20503;-81
2023/01/22 10:02:34;;;;;;;5.43;1.85;;;3.30;89.60;;;;;;4961559;28;20418;-81
2023/01/22 10:05:29;;;;;;;15.57;2.95;;;3.30;90.00;;;;;;4960696;28;20736;-79
2023/01/22 10:08:03;;;;;;;11.38;2.50;;;3.20;90.50;;;;;;4960775;28;20109;-79
2023/01/22 10:10:32;;;;;;;7.40;2.17;;;3.20;90.40;;;;;;4976567;28;20845;-79
2023/01/22 10:13:22;;;;;;;9.23;3.55;;;3.20;90.60;;;;;;4962221;28;20110;-79
2023/01/22 10:15:51;;;;;;;15.88;2.67;;;3.20;90.70;;;;;;4963530;28;20627;-79
2023/01/22 10:18:22;;;;;;;9.43;2.38;;;3.20;90.70;;;;;;4959788;28;20046;-79
2023/01/22 10:20:50;;;;;;;12.10;2.55;;;3.20;90.90;;;;;;4961574;28;20763;-79
2023/01/22 10:23:21;;;;;;;9.50;2.45;;;3.20;90.50;;;;;;4961644;28;20466;-80
2023/01/22 10:26:10;;;;;;;10.05;2.42;;;3.20;91.20;;;;;;4975122;28;20122;-82
2023/01/22 10:28:52;;;;;;;13.77;3.53;;;3.20;90.70;;;;;;4979546;28;20624;-82
2023/01/22 10:31:27;;;;;;;8.82;2.78;;;3.20;90.00;;;;;;4963611;28;20555;-82
2023/01/22 10:34:16;;;;;;;12.35;2.60;;;3.30;90.10;;;;;;4963585;28;20047;-80
2023/01/22 10:36:51;;;;;;;6.55;3.20;;;3.30;89.50;;;;;;4956408;28;20055;-80
2023/01/22 10:39:22;;;;;;;11.25;3.22;;;3.30;89.80;;;;;;4962537;28;20049;-80
2023/01/22 10:41:49;;;;;;;29.80;6.25;;;3.30;89.80;;;;;;4977010;28;20043;-80
2023/01/22 10:44:23;;;;;;;24.33;8.00;;;3.30;89.50;;;;;;4961208;28;20060;-80
2023/01/22 10:46:51;;;;;;;10.68;3.40;;;3.30;89.30;;;;;;4965052;28;20483;-80
2023/01/22 10:49:21;;;;;;;38.97;9.93;;;3.30;89.20;;;;;;4963333;28;20059;-81
2023/01/22 10:51:52;;;;;;;14.95;5.50;;;3.30;89.40;;;;;;4963352;28;20117;-84
2023/01/22 10:54:25;;;;;;;24.38;6.63;;;3.30;89.60;;;;;;4962161;28;20055;-82
2023/01/22 10:57:04;;;;;;;34.83;7.38;;;3.40;89.00;;;;;;4976804;28;20081;-81
2023/01/22 10:59:32;;;;;;;16.25;4.32;;;3.40;89.10;;;;;;4977386;28;20055;-90
2023/01/22 11:02:02;;;;;;;21.70;7.40;;;3.40;88.80;;;;;;4964672;28;20055;-86
2023/01/22 11:04:32;;;;;;;23.15;5.45;;;3.40;89.10;;;;;;4964093;28;20070;-84
2023/01/22 11:07:13;;;;;;;14.52;5.30;;;3.40;88.70;;;;;;4961640;28;20199;-81
2023/01/22 11:09:50;;;;;;;16.40;4.13;;;3.50;88.60;;;;;;4960289;28;20043;-81
2023/01/22 11:12:21;;;;;;;13.98;3.10;;;3.50;88.50;;;;;;4963885;28;20619;-80
2023/01/22 11:15:05;;;;;;;10.80;3.88;;;3.50;87.90;;;;;;4965162;28;20156;-80
2023/01/22 11:17:47;;;;;;;15.10;4.47;;;3.50;88.00;;;;;;4982208;28;20489;-81
2023/01/22 11:20:22;;;;;;;10.45;3.17;;;3.50;88.60;;;;;;4967771;28;20062;-82
2023/01/22 11:23:08;;;;;;;9.88;3.10;;;3.60;88.70;;;;;;4966367;28;20059;-83
2023/01/22 11:25:48;;;;;;;8.55;3.30;;;3.60;88.60;;;;;;4966403;28;20054;-83
2023/01/22 11:28:23;;;;;;;14.90;3.75;;;3.60;88.60;;;;;;4964669;28;20046;-81
2023/01/22 11:31:17;;;;;;;16.52;3.05;;;3.60;87.90;;;;;;4963535;28;20055;-82
2023/01/22 11:33:44;;;;;;;12.23;3.00;;;3.60;87.80;;;;;;4962671;28;20058;-82
2023/01/22 11:36:30;;;;;;;8.15;2.33;;;3.50;88.20;;;;;;4963936;28;20511;-82
2023/01/22 11:39:09;;;;;;;12.50;2.90;;;3.50;87.40;;;;;;4959924;28;20058;-82
2023/01/22 11:42:02;;;;;;;13.80;3.33;;;3.50;87.30;;;;;;4954592;28;20054;-83
2023/01/22 11:44:58;;;;;;;14.57;2.40;;;3.50;87.30;;;;;;4956758;28;20411;-78
2023/01/22 11:47:54;;;;;;;8.63;2.00;;;3.50;87.10;;;;;;4956597;28;20657;-79
2023/01/22 11:50:42;;;;;;;12.13;3.67;;;3.40;87.20;;;;;;4955696;28;20055;-80
2023/01/22 11:53:33;;;;;;;13.30;2.45;;;3.40;87.40;;;;;;4970524;28;20190;-82
2023/01/22 11:56:15;;;;;;;12.43;3.53;;;3.40;87.20;;;;;;4970898;28;20055;-81
2023/01/22 11:58:51;;;;;;;9.38;2.45;;;3.30;87.30;;;;;;4965776;28;20074;-79
2023/01/22 12:01:36;;;;;;;7.43;2.25;;;3.30;87.40;;;;;;4957533;28;20051;-80
2023/01/22 12:04:19;;;;;;;16.77;3.38;;;3.30;87.40;;;;;;4969396;28;20103;-79
2023/01/22 12:07:23;;;;;;;5.05;2.35;;;3.30;87.50;;;;;;4971029;28;20055;-79
2023/01/22 12:10:15;;;;;;;5.80;2.10;;;3.30;87.60;;;;;;4960903;28;20050;-79
2023/01/22 12:13:04;;;;;;;10.45;2.95;;;3.30;88.30;;;;;;4965121;28;20146;-79
2023/01/22 12:15:51;;;;;;;13.88;3.63;;;3.30;87.90;;;;;;4977653;28;21556;-81
2023/01/22 12:18:58;;;;;;;10.93;2.53;;;3.30;88.00;;;;;;4972486;28;20065;-79
2023/01/22 12:22:03;;;;;;;12.57;3.85;;;3.30;88.00;;;;;;4979875;28;20054;-80
2023/01/22 12:24:48;;;;;;;9.75;2.95;;;3.30;88.10;;;;;;4964444;28;20492;-81
2023/01/22 12:27:21;;;;;;;;;;;3.40;88.00;;;;;;4979430;28;20077;-80
2023/01/22 12:30:01;;;;;;;5.63;2.50;;;3.40;88.10;;;;;;4960396;28;19930;-80
2023/01/22 12:32:30;;;;;;;9.32;2.95;;;3.40;88.00;;;;;;4968871;28;20053;-81
2023/01/22 12:35:04;;;;;;;7.82;2.60;;;3.50;87.80;;;;;;4969802;28;20449;-81
2023/01/22 12:37:46;;;;;;;10.75;3.35;;;3.40;88.00;;;;;;4971000;28;20058;-79
2023/01/22 12:40:25;;;;;;;10.27;4.65;;;3.50;88.00;;;;;;4953802;28;20059;-80
2023/01/22 12:43:06;;;;;;;8.82;3.35;;;3.50;88.10;;;;;;4959941;28;20066;-82
2023/01/22 12:46:03;;;;;;;7.07;3.13;;;3.50;88.30;;;;;;4959453;28;20160;-78
2023/01/22 12:48:33;;;;;;;9.38;2.70;;;3.50;88.00;;;;;;4962809;28;20070;-80
2023/01/22 12:51:00;;;;;;;13.18;3.95;;;3.50;88.00;;;;;;4964468;28;20177;-79
2023/01/22 12:53:33;;;;;;;8.05;2.83;;;3.40;88.40;;;;;;4960808;28;20122;-79
2023/01/22 12:56:09;;;;;;;20.10;6.13;;;3.40;88.50;;;;;;4962405;28;20098;-84
2023/01/22 12:58:40;;;;;;;9.75;3.22;;;3.40;88.60;;;;;;4973662;28;20047;-77
2023/01/22 13:01:10;;;;;;;12.50;3.60;;;3.30;88.80;;;;;;4960128;28;20146;-83
2023/01/22 13:03:40;;;;;;;10.18;3.08;;;3.30;88.90;;;;;;4973553;28;20055;-82
2023/01/22 13:06:19;;;;;;;10.98;3.30;;;3.30;89.10;;;;;;4963554;28;20049;-86
2023/01/22 13:08:46;;;;;;;8.40;3.70;;;3.30;89.40;;;;;;4957168;28;20056;-85
2023/01/22 13:11:28;;;;;;;6.15;3.45;;;3.30;89.50;;;;;;4961343;28;20393;-86
2023/01/22 13:14:17;;;;;;;8.10;3.35;;;3.30;89.80;;;;;;4960528;28;20054;-85
2023/01/22 13:17:14;;;;;;;6.97;3.65;;;3.30;89.90;;;;;;4963528;28;20050;-85